sensor_id;sensor_type;location;lat;lon;timestamp;P1;durP1;ratioP1;P2;durP2;ratioP2
15063;SDS011;7631;52.088;5.088;2023-06-19T00:01:15;5.97;;;5.47;;
15063;SDS011;7631;52.088;5.088;2023-06-19T00:03:40;6.30;;;5.80;;
15063;SDS011;7631;52.088;5.088;2023-06-19T00:06:05;6.45;;;5.95;;
15063;SDS011;7631;52.088;5.088;2023-06-19T00:08:31;6.30;;;5.80;;
15063;SDS011;7631;52.088;5.088;2023-06-19T00:10:56;6.35;;;5.75;;
15063;SDS011;7631;52.088;5.088;2023-06-19T00:13:21;6.15;;;5.65;;
15063;SDS011;7631;52.088;5.088;2023-06-19T00:15:46;6.22;;;5.63;;
15063;SDS011;7631;52.088;5.088;2023-06-19T00:18:12;6.13;;;5.63;;
15063;SDS011;7631;52.088;5.088;2023-06-19T00:20:37;6.40;;;5.80;;
15063;SDS011;7631;52.088;5.088;2023-06-19T00:23:04;6.32;;;5.82;;
15063;SDS011;7631;52.088;5.088;2023-06-19T00:25:29;6.70;;;6.18;;
15063;SDS011;7631;52.088;5.088;2023-06-19T00:27:54;5.95;;;5.35;;
15063;SDS011;7631;52.088;5.088;2023-06-19T00:30:20;6.22;;;5.72;;
15063;SDS011;7631;52.088;5.088;2023-06-19T00:32:45;6.10;;;5.60;;
15063;SDS011;7631;52.088;5.088;2023-06-19T00:35:15;6.40;;;5.90;;
15063;SDS011;7631;52.088;5.088;2023-06-19T00:37:40;6.65;;;6.05;;
15063;SDS011;7631;52.088;5.088;2023-06-19T00:40:09;6.35;;;5.88;;
15063;SDS011;7631;52.088;5.088;2023-06-19T00:42:35;5.97;;;5.47;;
15063;SDS011;7631;52.088;5.088;2023-06-19T00:45:00;6.13;;;5.63;;
15063;SDS011;7631;52.088;5.088;2023-06-19T00:47:25;6.05;;;5.55;;
15063;SDS011;7631;52.088;5.088;2023-06-19T00:49:51;6.50;;;5.90;;
15063;SDS011;7631;52.088;5.088;2023-06-19T00:52:16;5.18;;;4.78;;
15063;SDS011;7631;52.088;5.088;2023-06-19T00:54:42;6.05;;;5.55;;
15063;SDS011;7631;52.088;5.088;2023-06-19T00:57:07;5.25;;;4.85;;
15063;SDS011;7631;52.088;5.088;2023-06-19T00:59:33;6.05;;;5.55;;
15063;SDS011;7631;52.088;5.088;2023-06-19T01:01:58;5.85;;;5.35;;
15063;SDS011;7631;52.088;5.088;2023-06-19T01:04:24;5.97;;;5.47;;
15063;SDS011;7631;52.088;5.088;2023-06-19T01:06:58;5.63;;;5.07;;
15063;SDS011;7631;52.088;5.088;2023-06-19T01:09:28;5.70;;;5.20;;
15063;SDS011;7631;52.088;5.088;2023-06-19T01:11:56;5.68;;;5.18;;
15063;SDS011;7631;52.088;5.088;2023-06-19T01:14:25;5.47;;;5.07;;
15063;SDS011;7631;52.088;5.088;2023-06-19T01:16:51;5.10;;;4.70;;
15063;SDS011;7631;52.088;5.088;2023-06-19T01:19:20;4.85;;;4.35;;
15063;SDS011;7631;52.088;5.088;2023-06-19T01:21:46;5.40;;;4.90;;
15063;SDS011;7631;52.088;5.088;2023-06-19T01:24:11;4.50;;;4.10;;
15063;SDS011;7631;52.088;5.088;2023-06-19T01:26:40;5.03;;;4.63;;
15063;SDS011;7631;52.088;5.088;2023-06-19T01:29:05;5.25;;;4.75;;
15063;SDS011;7631;52.088;5.088;2023-06-19T01:31:33;5.30;;;4.50;;
15063;SDS011;7631;52.088;5.088;2023-06-19T01:34:00;4.25;;;3.80;;
15063;SDS011;7631;52.088;5.088;2023-06-19T01:36:26;4.75;;;3.92;;
15063;SDS011;7631;52.088;5.088;2023-06-19T01:38:51;4.13;;;3.83;;
15063;SDS011;7631;52.088;5.088;2023-06-19T01:41:19;4.38;;;4.07;;
15063;SDS011;7631;52.088;5.088;2023-06-19T01:43:45;4.05;;;3.70;;
15063;SDS011;7631;52.088;5.088;2023-06-19T01:46:11;4.30;;;3.90;;
15063;SDS011;7631;52.088;5.088;2023-06-19T01:48:37;4.45;;;4.05;;
15063;SDS011;7631;52.088;5.088;2023-06-19T01:51:03;3.92;;;3.63;;
15063;SDS011;7631;52.088;5.088;2023-06-19T01:53:29;3.97;;;3.67;;
15063;SDS011;7631;52.088;5.088;2023-06-19T01:55:55;4.07;;;3.78;;
15063;SDS011;7631;52.088;5.088;2023-06-19T01:58:20;3.92;;;3.63;;
15063;SDS011;7631;52.088;5.088;2023-06-19T02:00:45;3.72;;;3.42;;
15063;SDS011;7631;52.088;5.088;2023-06-19T02:03:12;3.67;;;3.38;;
15063;SDS011;7631;52.088;5.088;2023-06-19T02:05:37;6.13;;;3.53;;
15063;SDS011;7631;52.088;5.088;2023-06-19T02:08:04;3.72;;;3.42;;
15063;SDS011;7631;52.088;5.088;2023-06-19T02:10:29;3.70;;;3.40;;
15063;SDS011;7631;52.088;5.088;2023-06-19T02:12:54;3.92;;;3.53;;
15063;SDS011;7631;52.088;5.088;2023-06-19T02:15:20;3.42;;;3.13;;
15063;SDS011;7631;52.088;5.088;2023-06-19T02:17:45;3.30;;;3.00;;
15063;SDS011;7631;52.088;5.088;2023-06-19T02:20:11;3.60;;;3.30;;
15063;SDS011;7631;52.088;5.088;2023-06-19T02:22:39;2.92;;;2.72;;
15063;SDS011;7631;52.088;5.088;2023-06-19T02:25:05;3.95;;;3.58;;
15063;SDS011;7631;52.088;5.088;2023-06-19T02:27:30;3.47;;;2.80;;
15063;SDS011;7631;52.088;5.088;2023-06-19T02:29:55;3.50;;;3.20;;
15063;SDS011;7631;52.088;5.088;2023-06-19T02:32:21;3.00;;;2.80;;
15063;SDS011;7631;52.088;5.088;2023-06-19T02:34:46;2.95;;;2.70;;
15063;SDS011;7631;52.088;5.088;2023-06-19T02:37:11;3.25;;;3.03;;
15063;SDS011;7631;52.088;5.088;2023-06-19T02:39:36;3.58;;;3.28;;
15063;SDS011;7631;52.088;5.088;2023-06-19T02:42:01;2.88;;;2.67;;
15063;SDS011;7631;52.088;5.088;2023-06-19T02:44:27;2.83;;;2.63;;
15063;SDS011;7631;52.088;5.088;2023-06-19T02:46:52;3.42;;;2.70;;
15063;SDS011;7631;52.088;5.088;2023-06-19T02:49:17;3.42;;;3.17;;
15063;SDS011;7631;52.088;5.088;2023-06-19T02:51:42;3.08;;;2.88;;
15063;SDS011;7631;52.088;5.088;2023-06-19T02:54:07;3.55;;;2.95;;
15063;SDS011;7631;52.088;5.088;2023-06-19T02:56:33;3.50;;;3.20;;
15063;SDS011;7631;52.088;5.088;2023-06-19T02:58:58;2.80;;;2.60;;
15063;SDS011;7631;52.088;5.088;2023-06-19T03:01:23;3.13;;;2.83;;
15063;SDS011;7631;52.088;5.088;2023-06-19T03:03:49;3.10;;;2.80;;
15063;SDS011;7631;52.088;5.088;2023-06-19T03:06:14;2.97;;;2.78;;
15063;SDS011;7631;52.088;5.088;2023-06-19T03:08:39;3.15;;;2.85;;
15063;SDS011;7631;52.088;5.088;2023-06-19T03:11:05;3.10;;;2.90;;
15063;SDS011;7631;52.088;5.088;2023-06-19T03:16:14;4.15;;;2.88;;
15063;SDS011;7631;52.088;5.088;2023-06-19T03:18:40;2.67;;;2.47;;
15063;SDS011;7631;52.088;5.088;2023-06-19T03:21:05;3.40;;;3.10;;
15063;SDS011;7631;52.088;5.088;2023-06-19T03:23:30;3.03;;;2.72;;
15063;SDS011;7631;52.088;5.088;2023-06-19T03:25:55;3.30;;;3.00;;
15063;SDS011;7631;52.088;5.088;2023-06-19T03:28:22;3.40;;;3.00;;
15063;SDS011;7631;52.088;5.088;2023-06-19T03:30:47;2.78;;;2.58;;
15063;SDS011;7631;52.088;5.088;2023-06-19T03:33:12;3.95;;;3.38;;
15063;SDS011;7631;52.088;5.088;2023-06-19T03:35:37;2.88;;;2.67;;
15063;SDS011;7631;52.088;5.088;2023-06-19T03:38:02;3.22;;;2.92;;
15063;SDS011;7631;52.088;5.088;2023-06-19T03:40:28;3.13;;;2.83;;
15063;SDS011;7631;52.088;5.088;2023-06-19T03:42:54;3.03;;;2.72;;
15063;SDS011;7631;52.088;5.088;2023-06-19T03:45:19;3.05;;;2.75;;
15063;SDS011;7631;52.088;5.088;2023-06-19T03:47:44;3.70;;;3.40;;
15063;SDS011;7631;52.088;5.088;2023-06-19T03:50:09;3.38;;;3.08;;
15063;SDS011;7631;52.088;5.088;2023-06-19T03:52:35;3.55;;;3.25;;
15063;SDS011;7631;52.088;5.088;2023-06-19T03:55:00;3.03;;;2.83;;
15063;SDS011;7631;52.088;5.088;2023-06-19T03:57:26;3.53;;;3.22;;
15063;SDS011;7631;52.088;5.088;2023-06-19T03:59:52;3.88;;;3.47;;
15063;SDS011;7631;52.088;5.088;2023-06-19T04:02:18;3.45;;;3.15;;
15063;SDS011;7631;52.088;5.088;2023-06-19T04:04:44;4.25;;;3.85;;
15063;SDS011;7631;52.088;5.088;2023-06-19T04:07:09;5.15;;;3.92;;
15063;SDS011;7631;52.088;5.088;2023-06-19T04:09:34;4.20;;;3.75;;
15063;SDS011;7631;52.088;5.088;2023-06-19T04:11:59;4.10;;;3.70;;
15063;SDS011;7631;52.088;5.088;2023-06-19T04:14:24;4.03;;;3.65;;
15063;SDS011;7631;52.088;5.088;2023-06-19T04:16:50;3.55;;;3.25;;
15063;SDS011;7631;52.088;5.088;2023-06-19T04:19:15;3.80;;;3.50;;
15063;SDS011;7631;52.088;5.088;2023-06-19T04:21:40;3.58;;;3.10;;
15063;SDS011;7631;52.088;5.088;2023-06-19T04:24:05;4.18;;;3.78;;
15063;SDS011;7631;52.088;5.088;2023-06-19T04:26:33;3.65;;;3.35;;
15063;SDS011;7631;52.088;5.088;2023-06-19T04:28:59;3.80;;;3.50;;
15063;SDS011;7631;52.088;5.088;2023-06-19T04:31:26;4.00;;;3.70;;
15063;SDS011;7631;52.088;5.088;2023-06-19T04:33:51;3.88;;;3.47;;
15063;SDS011;7631;52.088;5.088;2023-06-19T04:36:16;3.90;;;3.60;;
15063;SDS011;7631;52.088;5.088;2023-06-19T04:38:41;3.50;;;3.20;;
15063;SDS011;7631;52.088;5.088;2023-06-19T04:41:07;3.78;;;3.47;;
15063;SDS011;7631;52.088;5.088;2023-06-19T04:43:32;3.65;;;3.13;;
15063;SDS011;7631;52.088;5.088;2023-06-19T04:45:59;3.78;;;3.47;;
15063;SDS011;7631;52.088;5.088;2023-06-19T04:48:24;5.00;;;3.20;;
15063;SDS011;7631;52.088;5.088;2023-06-19T04:50:50;3.13;;;2.92;;
15063;SDS011;7631;52.088;5.088;2023-06-19T04:53:15;3.08;;;2.88;;
15063;SDS011;7631;52.088;5.088;2023-06-19T04:55:40;3.38;;;2.78;;
15063;SDS011;7631;52.088;5.088;2023-06-19T04:58:05;2.85;;;2.55;;
15063;SDS011;7631;52.088;5.088;2023-06-19T05:00:30;2.63;;;2.42;;
15063;SDS011;7631;52.088;5.088;2023-06-19T05:02:56;2.75;;;2.50;;
15063;SDS011;7631;52.088;5.088;2023-06-19T05:05:24;2.88;;;2.67;;
15063;SDS011;7631;52.088;5.088;2023-06-19T05:07:49;2.60;;;2.40;;
15063;SDS011;7631;52.088;5.088;2023-06-19T05:10:15;2.50;;;2.17;;
15063;SDS011;7631;52.088;5.088;2023-06-19T05:12:41;2.38;;;2.17;;
15063;SDS011;7631;52.088;5.088;2023-06-19T05:15:07;2.47;;;2.28;;
15063;SDS011;7631;52.088;5.088;2023-06-19T05:17:32;2.70;;;2.13;;
15063;SDS011;7631;52.088;5.088;2023-06-19T05:19:58;2.40;;;2.20;;
15063;SDS011;7631;52.088;5.088;2023-06-19T05:22:23;2.22;;;2.03;;
15063;SDS011;7631;52.088;5.088;2023-06-19T05:24:49;2.13;;;1.92;;
15063;SDS011;7631;52.088;5.088;2023-06-19T05:27:14;2.10;;;1.90;;
15063;SDS011;7631;52.088;5.088;2023-06-19T05:29:39;3.35;;;2.35;;
15063;SDS011;7631;52.088;5.088;2023-06-19T05:32:04;3.65;;;1.98;;
15063;SDS011;7631;52.088;5.088;2023-06-19T05:34:30;2.72;;;2.25;;
15063;SDS011;7631;52.088;5.088;2023-06-19T05:36:55;2.25;;;2.05;;
15063;SDS011;7631;52.088;5.088;2023-06-19T05:39:20;2.70;;;2.33;;
15063;SDS011;7631;52.088;5.088;2023-06-19T05:41:45;2.40;;;2.10;;
15063;SDS011;7631;52.088;5.088;2023-06-19T05:44:14;2.40;;;2.20;;
15063;SDS011;7631;52.088;5.088;2023-06-19T05:46:41;2.50;;;2.28;;
15063;SDS011;7631;52.088;5.088;2023-06-19T05:49:06;2.55;;;1.85;;
15063;SDS011;7631;52.088;5.088;2023-06-19T05:51:32;2.47;;;2.28;;
15063;SDS011;7631;52.088;5.088;2023-06-19T05:53:57;2.53;;;1.98;;
15063;SDS011;7631;52.088;5.088;2023-06-19T05:56:28;2.78;;;2.53;;
15063;SDS011;7631;52.088;5.088;2023-06-19T05:58:53;2.78;;;2.28;;
15063;SDS011;7631;52.088;5.088;2023-06-19T06:01:18;2.42;;;2.22;;
15063;SDS011;7631;52.088;5.088;2023-06-19T06:03:43;2.58;;;1.98;;
15063;SDS011;7631;52.088;5.088;2023-06-19T06:06:09;2.78;;;2.22;;
15063;SDS011;7631;52.088;5.088;2023-06-19T06:08:34;2.92;;;2.17;;
15063;SDS011;7631;52.088;5.088;2023-06-19T06:10:59;2.47;;;2.15;;
15063;SDS011;7631;52.088;5.088;2023-06-19T06:13:24;2.60;;;2.40;;
15063;SDS011;7631;52.088;5.088;2023-06-19T06:15:50;2.13;;;1.92;;
15063;SDS011;7631;52.088;5.088;2023-06-19T06:18:15;2.50;;;2.28;;
15063;SDS011;7631;52.088;5.088;2023-06-19T06:20:41;2.47;;;2.28;;
15063;SDS011;7631;52.088;5.088;2023-06-19T06:23:06;3.47;;;2.60;;
15063;SDS011;7631;52.088;5.088;2023-06-19T06:25:31;4.50;;;2.50;;
15063;SDS011;7631;52.088;5.088;2023-06-19T06:27:56;2.65;;;2.45;;
15063;SDS011;7631;52.088;5.088;2023-06-19T06:30:21;3.20;;;2.90;;
15063;SDS011;7631;52.088;5.088;2023-06-19T06:32:47;3.20;;;2.90;;
15063;SDS011;7631;52.088;5.088;2023-06-19T06:35:13;3.40;;;3.10;;
15063;SDS011;7631;52.088;5.088;2023-06-19T06:37:38;3.60;;;3.30;;
15063;SDS011;7631;52.088;5.088;2023-06-19T06:40:04;3.42;;;3.13;;
15063;SDS011;7631;52.088;5.088;2023-06-19T06:42:34;4.10;;;3.40;;
15063;SDS011;7631;52.088;5.088;2023-06-19T06:44:59;3.30;;;3.00;;
15063;SDS011;7631;52.088;5.088;2023-06-19T06:47:24;4.20;;;3.80;;
15063;SDS011;7631;52.088;5.088;2023-06-19T06:49:50;4.03;;;3.72;;
15063;SDS011;7631;52.088;5.088;2023-06-19T06:52:15;4.30;;;3.95;;
15063;SDS011;7631;52.088;5.088;2023-06-19T06:54:40;5.03;;;4.25;;
15063;SDS011;7631;52.088;5.088;2023-06-19T06:57:06;4.00;;;3.60;;
15063;SDS011;7631;52.088;5.088;2023-06-19T06:59:31;5.32;;;3.92;;
15063;SDS011;7631;52.088;5.088;2023-06-19T07:01:56;4.15;;;3.75;;
15063;SDS011;7631;52.088;5.088;2023-06-19T07:04:21;4.65;;;4.25;;
15063;SDS011;7631;52.088;5.088;2023-06-19T07:06:47;4.60;;;4.20;;
15063;SDS011;7631;52.088;5.088;2023-06-19T07:09:12;5.13;;;4.63;;
15063;SDS011;7631;52.088;5.088;2023-06-19T07:11:37;4.40;;;4.00;;
15063;SDS011;7631;52.088;5.088;2023-06-19T07:14:03;5.10;;;4.70;;
15063;SDS011;7631;52.088;5.088;2023-06-19T07:16:28;5.07;;;4.60;;
15063;SDS011;7631;52.088;5.088;2023-06-19T07:18:53;5.18;;;4.68;;
15063;SDS011;7631;52.088;5.088;2023-06-19T07:21:18;6.75;;;4.90;;
15063;SDS011;7631;52.088;5.088;2023-06-19T07:23:44;5.30;;;4.80;;
15063;SDS011;7631;52.088;5.088;2023-06-19T07:26:10;5.20;;;4.80;;
15063;SDS011;7631;52.088;5.088;2023-06-19T07:28:35;5.78;;;4.82;;
15063;SDS011;7631;52.088;5.088;2023-06-19T07:31:03;5.43;;;4.35;;
15063;SDS011;7631;52.088;5.088;2023-06-19T07:33:29;5.70;;;4.78;;
15063;SDS011;7631;52.088;5.088;2023-06-19T07:35:57;5.40;;;4.90;;
15063;SDS011;7631;52.088;5.088;2023-06-19T07:38:22;6.68;;;4.82;;
15063;SDS011;7631;52.088;5.088;2023-06-19T07:40:47;5.90;;;5.30;;
15063;SDS011;7631;52.088;5.088;2023-06-19T07:43:13;5.55;;;5.05;;
15063;SDS011;7631;52.088;5.088;2023-06-19T07:45:38;6.30;;;5.35;;
15063;SDS011;7631;52.088;5.088;2023-06-19T07:48:03;6.15;;;5.55;;
15063;SDS011;7631;52.088;5.088;2023-06-19T07:50:29;6.00;;;5.32;;
15063;SDS011;7631;52.088;5.088;2023-06-19T07:52:54;5.88;;;5.05;;
15063;SDS011;7631;52.088;5.088;2023-06-19T07:55:19;5.65;;;5.15;;
15063;SDS011;7631;52.088;5.088;2023-06-19T07:57:44;5.70;;;5.10;;
15063;SDS011;7631;52.088;5.088;2023-06-19T08:00:10;6.00;;;5.40;;
15063;SDS011;7631;52.088;5.088;2023-06-19T08:02:41;6.35;;;5.75;;
15063;SDS011;7631;52.088;5.088;2023-06-19T08:05:07;5.90;;;5.30;;
15063;SDS011;7631;52.088;5.088;2023-06-19T08:07:33;6.63;;;5.60;;
15063;SDS011;7631;52.088;5.088;2023-06-19T08:09:58;6.55;;;5.95;;
15063;SDS011;7631;52.088;5.088;2023-06-19T08:12:23;6.45;;;5.85;;
15063;SDS011;7631;52.088;5.088;2023-06-19T08:14:48;6.70;;;6.10;;
15063;SDS011;7631;52.088;5.088;2023-06-19T08:17:14;6.80;;;6.10;;
15063;SDS011;7631;52.088;5.088;2023-06-19T08:19:39;7.35;;;6.68;;
15063;SDS011;7631;52.088;5.088;2023-06-19T08:22:05;7.07;;;6.38;;
15063;SDS011;7631;52.088;5.088;2023-06-19T08:24:30;6.63;;;6.03;;
15063;SDS011;7631;52.088;5.088;2023-06-19T08:26:55;7.22;;;6.57;;
15063;SDS011;7631;52.088;5.088;2023-06-19T08:29:20;7.13;;;6.43;;
15063;SDS011;7631;52.088;5.088;2023-06-19T08:31:47;7.28;;;6.57;;
15063;SDS011;7631;52.088;5.088;2023-06-19T08:34:12;8.00;;;7.13;;
15063;SDS011;7631;52.088;5.088;2023-06-19T08:36:37;6.70;;;6.00;;
15063;SDS011;7631;52.088;5.088;2023-06-19T08:39:03;6.90;;;6.30;;
15063;SDS011;7631;52.088;5.088;2023-06-19T08:41:28;7.20;;;6.57;;
15063;SDS011;7631;52.088;5.088;2023-06-19T08:43:54;8.77;;;7.68;;
15063;SDS011;7631;52.088;5.088;2023-06-19T08:46:19;7.30;;;6.60;;
15063;SDS011;7631;52.088;5.088;2023-06-19T08:48:44;9.23;;;8.32;;
15063;SDS011;7631;52.088;5.088;2023-06-19T08:51:10;7.88;;;7.18;;
15063;SDS011;7631;52.088;5.088;2023-06-19T08:53:36;7.43;;;6.78;;
15063;SDS011;7631;52.088;5.088;2023-06-19T08:56:02;8.05;;;7.25;;
15063;SDS011;7631;52.088;5.088;2023-06-19T08:58:27;8.60;;;6.25;;
15063;SDS011;7631;52.088;5.088;2023-06-19T09:00:52;7.82;;;7.03;;
15063;SDS011;7631;52.088;5.088;2023-06-19T09:03:21;7.93;;;7.22;;
15063;SDS011;7631;52.088;5.088;2023-06-19T09:05:46;8.02;;;7.07;;
15063;SDS011;7631;52.088;5.088;2023-06-19T09:08:15;8.65;;;7.82;;
15063;SDS011;7631;52.088;5.088;2023-06-19T09:10:41;7.22;;;6.53;;
15063;SDS011;7631;52.088;5.088;2023-06-19T09:13:06;7.82;;;7.03;;
15063;SDS011;7631;52.088;5.088;2023-06-19T09:15:33;7.20;;;6.53;;
15063;SDS011;7631;52.088;5.088;2023-06-19T09:17:59;8.68;;;7.47;;
15063;SDS011;7631;52.088;5.088;2023-06-19T09:20:28;7.30;;;6.70;;
15063;SDS011;7631;52.088;5.088;2023-06-19T09:22:57;8.15;;;7.45;;
15063;SDS011;7631;52.088;5.088;2023-06-19T09:25:22;8.30;;;7.60;;
15063;SDS011;7631;52.088;5.088;2023-06-19T09:27:48;8.93;;;8.13;;
15063;SDS011;7631;52.088;5.088;2023-06-19T09:30:15;8.75;;;7.95;;
15063;SDS011;7631;52.088;5.088;2023-06-19T09:32:40;8.43;;;7.63;;
15063;SDS011;7631;52.088;5.088;2023-06-19T09:35:05;8.13;;;7.43;;
15063;SDS011;7631;52.088;5.088;2023-06-19T09:37:30;9.43;;;8.63;;
15063;SDS011;7631;52.088;5.088;2023-06-19T09:39:57;8.27;;;7.50;;
15063;SDS011;7631;52.088;5.088;2023-06-19T09:42:30;8.38;;;7.57;;
15063;SDS011;7631;52.088;5.088;2023-06-19T09:45:00;7.97;;;7.38;;
15063;SDS011;7631;52.088;5.088;2023-06-19T09:47:28;8.30;;;7.60;;
15063;SDS011;7631;52.088;5.088;2023-06-19T09:49:54;9.43;;;8.63;;
15063;SDS011;7631;52.088;5.088;2023-06-19T09:52:20;8.25;;;7.55;;
15063;SDS011;7631;52.088;5.088;2023-06-19T09:54:47;9.30;;;8.50;;
15063;SDS011;7631;52.088;5.088;2023-06-19T09:57:14;9.52;;;8.48;;
15063;SDS011;7631;52.088;5.088;2023-06-19T09:59:39;9.05;;;8.25;;
15063;SDS011;7631;52.088;5.088;2023-06-19T10:02:05;8.90;;;8.10;;
15063;SDS011;7631;52.088;5.088;2023-06-19T10:04:41;9.32;;;8.43;;
15063;SDS011;7631;52.088;5.088;2023-06-19T10:07:14;9.50;;;8.57;;
15063;SDS011;7631;52.088;5.088;2023-06-19T10:09:40;8.70;;;7.90;;
15063;SDS011;7631;52.088;5.088;2023-06-19T10:12:11;8.77;;;7.97;;
15063;SDS011;7631;52.088;5.088;2023-06-19T10:14:44;10.38;;;9.48;;
15063;SDS011;7631;52.088;5.088;2023-06-19T10:17:09;10.07;;;9.18;;
15063;SDS011;7631;52.088;5.088;2023-06-19T10:19:35;10.55;;;9.65;;
15063;SDS011;7631;52.088;5.088;2023-06-19T10:22:00;9.50;;;8.60;;
15063;SDS011;7631;52.088;5.088;2023-06-19T10:24:25;9.05;;;8.25;;
15063;SDS011;7631;52.088;5.088;2023-06-19T10:27:01;8.52;;;7.70;;
15063;SDS011;7631;52.088;5.088;2023-06-19T10:29:37;8.70;;;7.80;;
15063;SDS011;7631;52.088;5.088;2023-06-19T10:32:02;10.10;;;9.20;;
15063;SDS011;7631;52.088;5.088;2023-06-19T10:34:34;9.77;;;8.88;;
15063;SDS011;7631;52.088;5.088;2023-06-19T10:36:59;8.52;;;7.82;;
15063;SDS011;7631;52.088;5.088;2023-06-19T10:39:24;8.63;;;7.82;;
15063;SDS011;7631;52.088;5.088;2023-06-19T10:41:50;9.60;;;8.80;;
15063;SDS011;7631;52.088;5.088;2023-06-19T10:44:16;10.63;;;9.73;;
15063;SDS011;7631;52.088;5.088;2023-06-19T10:46:41;9.20;;;8.40;;
15063;SDS011;7631;52.088;5.088;2023-06-19T10:49:07;9.20;;;8.38;;
15063;SDS011;7631;52.088;5.088;2023-06-19T10:51:36;8.80;;;8.10;;
15063;SDS011;7631;52.088;5.088;2023-06-19T10:54:01;9.25;;;8.55;;
15063;SDS011;7631;52.088;5.088;2023-06-19T10:56:26;8.93;;;8.20;;
15063;SDS011;7631;52.088;5.088;2023-06-19T10:59:02;9.30;;;8.50;;
15063;SDS011;7631;52.088;5.088;2023-06-19T11:01:46;9.30;;;8.50;;
15063;SDS011;7631;52.088;5.088;2023-06-19T11:04:12;8.65;;;7.85;;
15063;SDS011;7631;52.088;5.088;2023-06-19T11:06:38;9.80;;;9.00;;
15063;SDS011;7631;52.088;5.088;2023-06-19T11:09:05;9.38;;;8.57;;
15063;SDS011;7631;52.088;5.088;2023-06-19T11:14:01;9.50;;;8.70;;
15063;SDS011;7631;52.088;5.088;2023-06-19T11:16:27;8.52;;;7.72;;
15063;SDS011;7631;52.088;5.088;2023-06-19T11:18:56;9.82;;;9.02;;
15063;SDS011;7631;52.088;5.088;2023-06-19T11:21:28;8.75;;;8.05;;
15063;SDS011;7631;52.088;5.088;2023-06-19T11:23:57;8.55;;;7.85;;
15063;SDS011;7631;52.088;5.088;2023-06-19T11:26:24;9.25;;;8.45;;
15063;SDS011;7631;52.088;5.088;2023-06-19T11:28:49;8.95;;;8.25;;
15063;SDS011;7631;52.088;5.088;2023-06-19T11:31:14;8.85;;;8.10;;
15063;SDS011;7631;52.088;5.088;2023-06-19T11:33:40;8.70;;;7.95;;
15063;SDS011;7631;52.088;5.088;2023-06-19T11:36:06;9.10;;;8.38;;
15063;SDS011;7631;52.088;5.088;2023-06-19T11:38:32;8.93;;;8.23;;
15063;SDS011;7631;52.088;5.088;2023-06-19T11:40:59;9.13;;;8.43;;
15063;SDS011;7631;52.088;5.088;2023-06-19T11:43:29;8.40;;;7.70;;
15063;SDS011;7631;52.088;5.088;2023-06-19T11:46:07;8.77;;;7.97;;
15063;SDS011;7631;52.088;5.088;2023-06-19T11:48:38;8.93;;;8.13;;
15063;SDS011;7631;52.088;5.088;2023-06-19T11:51:04;9.07;;;8.32;;
15063;SDS011;7631;52.088;5.088;2023-06-19T11:53:29;9.30;;;8.43;;
15063;SDS011;7631;52.088;5.088;2023-06-19T11:55:55;9.07;;;8.38;;
15063;SDS011;7631;52.088;5.088;2023-06-19T11:58:20;8.60;;;7.80;;
15063;SDS011;7631;52.088;5.088;2023-06-19T12:00:46;8.27;;;7.68;;
15063;SDS011;7631;52.088;5.088;2023-06-19T12:03:11;8.73;;;7.97;;
15063;SDS011;7631;52.088;5.088;2023-06-19T12:05:40;9.30;;;8.60;;
15063;SDS011;7631;52.088;5.088;2023-06-19T12:08:05;8.43;;;7.72;;
15063;SDS011;7631;52.088;5.088;2023-06-19T12:10:31;8.68;;;7.97;;
15063;SDS011;7631;52.088;5.088;2023-06-19T12:12:57;8.25;;;7.55;;
15063;SDS011;7631;52.088;5.088;2023-06-19T12:15:22;8.77;;;8.07;;
15063;SDS011;7631;52.088;5.088;2023-06-19T12:17:47;8.93;;;8.13;;
15063;SDS011;7631;52.088;5.088;2023-06-19T12:20:13;8.60;;;7.90;;
15063;SDS011;7631;52.088;5.088;2023-06-19T12:22:41;8.45;;;7.75;;
15063;SDS011;7631;52.088;5.088;2023-06-19T12:25:07;8.40;;;7.70;;
15063;SDS011;7631;52.088;5.088;2023-06-19T12:27:32;8.40;;;7.70;;
15063;SDS011;7631;52.088;5.088;2023-06-19T12:29:58;8.18;;;7.50;;
15063;SDS011;7631;52.088;5.088;2023-06-19T12:32:23;8.45;;;7.75;;
15063;SDS011;7631;52.088;5.088;2023-06-19T12:34:49;7.95;;;7.25;;
15063;SDS011;7631;52.088;5.088;2023-06-19T12:37:14;8.40;;;7.68;;
15063;SDS011;7631;52.088;5.088;2023-06-19T12:39:40;8.90;;;8.20;;
15063;SDS011;7631;52.088;5.088;2023-06-19T12:42:06;8.32;;;7.65;;
15063;SDS011;7631;52.088;5.088;2023-06-19T12:44:31;8.27;;;7.57;;
15063;SDS011;7631;52.088;5.088;2023-06-19T12:46:56;7.88;;;7.25;;
15063;SDS011;7631;52.088;5.088;2023-06-19T12:49:23;8.27;;;7.57;;
15063;SDS011;7631;52.088;5.088;2023-06-19T12:51:48;8.27;;;7.57;;
15063;SDS011;7631;52.088;5.088;2023-06-19T12:54:16;8.48;;;7.82;;
15063;SDS011;7631;52.088;5.088;2023-06-19T12:56:41;8.13;;;7.43;;
15063;SDS011;7631;52.088;5.088;2023-06-19T12:59:06;8.05;;;7.35;;
15063;SDS011;7631;52.088;5.088;2023-06-19T13:01:32;8.13;;;7.53;;
15063;SDS011;7631;52.088;5.088;2023-06-19T13:03:57;8.43;;;7.75;;
15063;SDS011;7631;52.088;5.088;2023-06-19T13:06:22;8.48;;;7.78;;
15063;SDS011;7631;52.088;5.088;2023-06-19T13:08:47;8.18;;;7.53;;
15063;SDS011;7631;52.088;5.088;2023-06-19T13:11:13;8.05;;;7.35;;
15063;SDS011;7631;52.088;5.088;2023-06-19T13:13:38;8.32;;;7.72;;
15063;SDS011;7631;52.088;5.088;2023-06-19T13:16:03;8.40;;;7.70;;
15063;SDS011;7631;52.088;5.088;2023-06-19T13:18:28;7.88;;;7.25;;
15063;SDS011;7631;52.088;5.088;2023-06-19T13:20:53;7.90;;;7.30;;
15063;SDS011;7631;52.088;5.088;2023-06-19T13:23:19;8.07;;;7.38;;
15063;SDS011;7631;52.088;5.088;2023-06-19T13:25:44;7.47;;;6.88;;
15063;SDS011;7631;52.088;5.088;2023-06-19T13:28:09;8.07;;;7.38;;
15063;SDS011;7631;52.088;5.088;2023-06-19T13:30:34;7.65;;;7.05;;
15063;SDS011;7631;52.088;5.088;2023-06-19T13:33:00;8.15;;;7.45;;
15063;SDS011;7631;52.088;5.088;2023-06-19T13:35:25;8.23;;;7.45;;
15063;SDS011;7631;52.088;5.088;2023-06-19T13:37:51;7.47;;;6.88;;
15063;SDS011;7631;52.088;5.088;2023-06-19T13:40:16;8.25;;;7.55;;
15063;SDS011;7631;52.088;5.088;2023-06-19T13:42:41;7.97;;;7.28;;
15063;SDS011;7631;52.088;5.088;2023-06-19T13:45:06;7.70;;;7.10;;
15063;SDS011;7631;52.088;5.088;2023-06-19T13:47:32;8.13;;;7.43;;
15063;SDS011;7631;52.088;5.088;2023-06-19T13:49:57;8.32;;;7.63;;
15063;SDS011;7631;52.088;5.088;2023-06-19T13:52:22;8.75;;;8.05;;
15063;SDS011;7631;52.088;5.088;2023-06-19T13:54:48;8.13;;;7.43;;
15063;SDS011;7631;52.088;5.088;2023-06-19T13:57:13;8.18;;;7.47;;
15063;SDS011;7631;52.088;5.088;2023-06-19T13:59:38;7.43;;;6.82;;
15063;SDS011;7631;52.088;5.088;2023-06-19T14:02:04;7.72;;;7.13;;
15063;SDS011;7631;52.088;5.088;2023-06-19T14:04:29;8.00;;;7.40;;
15063;SDS011;7631;52.088;5.088;2023-06-19T14:06:54;7.45;;;6.85;;
15063;SDS011;7631;52.088;5.088;2023-06-19T14:09:20;7.70;;;7.10;;
15063;SDS011;7631;52.088;5.088;2023-06-19T14:11:46;8.02;;;7.43;;
15063;SDS011;7631;52.088;5.088;2023-06-19T14:14:11;7.68;;;7.07;;
15063;SDS011;7631;52.088;5.088;2023-06-19T14:16:36;6.95;;;6.35;;
15063;SDS011;7631;52.088;5.088;2023-06-19T14:19:01;6.72;;;6.22;;
15063;SDS011;7631;52.088;5.088;2023-06-19T14:21:27;7.60;;;7.00;;
15063;SDS011;7631;52.088;5.088;2023-06-19T14:23:52;7.55;;;6.95;;
15063;SDS011;7631;52.088;5.088;2023-06-19T14:26:17;7.68;;;7.07;;
15063;SDS011;7631;52.088;5.088;2023-06-19T14:28:42;7.30;;;6.70;;
15063;SDS011;7631;52.088;5.088;2023-06-19T14:31:08;7.22;;;6.63;;
15063;SDS011;7631;52.088;5.088;2023-06-19T14:33:33;6.80;;;6.30;;
15063;SDS011;7631;52.088;5.088;2023-06-19T14:36:00;7.40;;;6.80;;
15063;SDS011;7631;52.088;5.088;2023-06-19T14:38:26;7.18;;;6.57;;
15063;SDS011;7631;52.088;5.088;2023-06-19T14:40:56;7.00;;;6.40;;
15063;SDS011;7631;52.088;5.088;2023-06-19T14:43:23;7.03;;;6.43;;
15063;SDS011;7631;52.088;5.088;2023-06-19T14:45:48;7.05;;;6.32;;
15063;SDS011;7631;52.088;5.088;2023-06-19T14:48:13;6.57;;;6.07;;
15063;SDS011;7631;52.088;5.088;2023-06-19T14:50:38;6.68;;;6.07;;
15063;SDS011;7631;52.088;5.088;2023-06-19T14:53:04;6.95;;;6.35;;
15063;SDS011;7631;52.088;5.088;2023-06-19T14:55:29;6.22;;;5.72;;
15063;SDS011;7631;52.088;5.088;2023-06-19T14:57:54;7.05;;;6.45;;